Estación Meteorológica Peña el Pijo (Robertgarden) [ 11/24/17 15:34:06 CET ]

Fecha Hora Presion(HPa) Temp (°C) Humedad % Rocio (°C) Viento ( m/s) Direccion Lluvia 1Hora(mm) Lluvia 24H(mm) LLuvia Total(mm)
2017-May-01 01:01:43 1006.300 10.8 76 6.7 1.4 NW   0.51 1390.83
2017-May-01 02:01:39 1006.700 10.3 74 5.9       0.51 1390.83
2017-May-01 03:02:23 1006.400 10.3 73 5.7       0.51 1390.83
2017-May-01 04:02:14 1006.400 10.1 72 5.3       0.51 1390.83
2017-May-01 05:02:23 1006.800 9.4 71 4.4         1390.83
2017-May-01 06:02:06 1007.300 8.9 71 3.9         1390.83
2017-May-01 07:01:31 1007.800 7.9 72 3.2         1390.83
2017-May-01 08:01:56 1008.600 7.6 73 3.1         1390.83
2017-May-01 09:01:41 1009.100 9.5 72 4.7         1390.83
2017-May-01 10:01:57 1009.700 13.5 57 5.1 1.5 W     1390.83
2017-May-01 11:01:47 1009.600 16.2 45 4.2         1390.83
2017-May-01 12:01:51 1009.700 15.9 36 0.7         1390.83
2017-May-01 13:01:46 1009.700 20.5 27 0.7         1390.83
2017-May-01 14:01:37 1009.100 19.9 30 1.8         1390.83
2017-May-01 15:01:42 1009.100 21.3 30 3.1 3.2 SSW     1390.83
2017-May-01 16:01:49 1008.800 23.6 30 5.0         1390.83
2017-May-01 17:01:42 1008.700 22.6 30 4.2 1.3 SE     1390.83
2017-May-01 18:01:36 1008.800 21.4 32 4.0         1390.83
2017-May-01 19:01:29 1009.200 19.8 39 5.4         1390.83
2017-May-01 20:01:41 1009.800 16.2 47 4.8         1390.83
2017-May-01 21:01:22 1010.200 14.0 53 4.6         1390.83
2017-May-01 22:01:32 1010.900 11.9 58 3.9         1390.83
2017-May-01 23:01:32 1011.500 9.9 64 3.4         1390.83

Temperatura Máxima:23°    Temperatura Mínima:
Presión Máxima:1011.500 Hpa    Presión Mínima:1006.300 Hpa


Volver